Time;durP1;ratioP1;P1;durP2;ratioP2;P2;SDS_P1;SDS_P2;PMS_P1;PMS_P2;Temp;Humidity;BMP_temperature;BMP_pressure;BME280_temperature;BME280_humidity;BME280_pressure;Samples;Min_cycle;Max_cycle;Signal;HPM_P1;HPM_P2
2021/07/27 00:01:11;;;;;;;;;;;;;;;17.29;66.36;100068.56;5051344;28;810;-64
2021/07/27 00:03:39;;;;;;;;;;;;;;;17.35;66.55;100072.38;5033327;28;1184;-64
2021/07/27 00:06:07;;;;;;;;;;;;;;;17.41;66.06;100071.84;5051310;28;862;-64
2021/07/27 00:08:35;;;;;;;;;;;;;;;17.46;65.61;100062.91;5051216;28;1890;-64
2021/07/27 00:11:02;;;;;;;;;;;;;;;17.49;65.39;100065.59;5051361;28;803;-64
2021/07/27 00:13:29;;;;;;;;;;;;;;;17.47;65.37;100062.47;5051732;28;834;-64
2021/07/27 00:15:56;;;;;;;;;;;;;;;17.45;65.70;100061.34;5033500;28;1194;-64
2021/07/27 00:18:22;;;;;;;;;;;;;;;17.43;65.74;100055.41;5051489;28;788;-64
2021/07/27 00:20:50;;;;;;;;;;;;;;;17.40;65.89;100059.09;5051432;28;897;-64
2021/07/27 00:23:17;;;;;;;;;;;;;;;17.35;65.64;100052.06;5051574;28;834;-64
2021/07/27 00:25:44;;;;;;;;;;;;;;;17.35;65.81;100055.63;5029909;28;1353;-64
2021/07/27 00:28:11;;;;;;;;;;;;;;;17.38;65.86;100053.94;5032173;28;1910;-64
2021/07/27 00:30:38;;;;;;;;;;;;;;;17.40;65.72;100048.69;5030370;28;2170;-64
2021/07/27 00:33:05;;;;;;;;;;;;;;;17.45;65.79;100050.94;5031542;28;869;-64
2021/07/27 00:35:32;;;;;;;;;;;;;;;17.48;65.56;100046.50;5031578;28;799;-64
2021/07/27 00:38:08;;;;;;;;;;;;;;;17.52;65.74;100042.38;5031612;28;862;-63
2021/07/27 00:40:40;;;;;;;;;;;;;;;17.51;65.91;100035.19;5029856;28;1317;-64
2021/07/27 00:43:12;;;;;;;;;;;;;;;17.52;66.17;100039.56;5031228;28;966;-64
2021/07/27 00:45:39;;;;;;;;;;;;;;;17.54;65.94;100037.13;5031085;28;842;-64
2021/07/27 00:48:06;;;;;;;;;;;;;;;17.52;66.24;100030.41;5030850;28;1893;-64
2021/07/27 00:50:33;;;;;;;;;;;;;;;17.49;66.37;100028.50;5031011;28;889;-64
2021/07/27 00:53:01;;;;;;;;;;;;;;;17.46;66.54;100030.16;5030957;28;818;-63
2021/07/27 00:55:28;;;;;;;;;;;;;;;17.48;66.80;100030.50;5032623;28;807;-64
2021/07/27 00:57:55;;;;;;;;;;;;;;;17.57;66.94;100031.88;5035056;28;775;-64
2021/07/27 01:00:23;;;;;;;;;;;;;;;17.55;66.69;100027.50;5034649;28;830;-64
2021/07/27 01:02:50;;;;;;;;;;;;;;;17.53;66.16;100027.16;5034632;28;822;-64
2021/07/27 01:05:17;;;;;;;;;;;;;;;17.50;66.17;100027.28;5034612;28;819;-64
2021/07/27 01:07:44;;;;;;;;;;;;;;;17.45;65.94;100034.19;5035226;28;1957;-64
2021/07/27 01:10:13;;;;;;;;;;;;;;;17.43;65.93;100033.06;5034416;28;810;-64
2021/07/27 01:12:40;;;;;;;;;;;;;;;17.41;66.00;100030.72;5034277;28;863;-64
2021/07/27 01:15:08;;;;;;;;;;;;;;;17.39;66.00;100032.38;5034067;28;869;-64
2021/07/27 01:17:35;;;;;;;;;;;;;;;17.34;65.75;100031.69;5034036;28;822;-64
2021/07/27 01:39:28;;;;;;;;;;;;;;;17.22;67.58;100017.69;5053565;28;609;-65
2021/07/27 01:42:05;;;;;;;;;;;;;;;17.21;67.99;100019.72;5053463;28;921;-64
2021/07/27 01:44:33;;;;;;;;;;;;;;;17.22;68.29;100028.88;5053481;28;822;-64
2021/07/27 01:46:59;;;;;;;;;;;;;;;17.21;68.55;100030.88;5053297;28;1889;-64
2021/07/27 01:49:26;;;;;;;;;;;;;;;17.16;69.06;100031.44;5053422;28;806;-65
2021/07/27 01:51:53;;;;;;;;;;;;;;;17.03;69.44;100027.84;5053328;28;842;-64
2021/07/27 01:54:29;;;;;;;;;;;;;;;16.87;70.00;100037.81;5053486;28;861;-64
2021/07/27 01:56:56;;;;;;;;;;;;;;;16.73;70.68;100029.81;5053188;28;850;-64
2021/07/27 01:59:23;;;;;;;;;;;;;;;16.61;71.13;100033.31;5053150;28;866;-64
2021/07/27 02:01:49;;;;;;;;;;;;;;;16.48;71.14;100027.66;5053136;28;853;-64
2021/07/27 02:04:16;;;;;;;;;;;;;;;16.33;71.76;100028.00;5053104;28;838;-64
2021/07/27 02:06:43;;;;;;;;;;;;;;;16.18;71.67;100026.00;5052384;28;1951;-64
2021/07/27 02:09:10;;;;;;;;;;;;;;;16.01;72.11;100028.78;5052956;28;881;-64
2021/07/27 02:11:42;;;;;;;;;;;;;;;15.88;72.57;100033.47;5052987;28;917;-64
2021/07/27 02:14:12;;;;;;;;;;;;;;;15.76;72.99;100034.16;5052831;28;834;-64
2021/07/27 02:16:38;;;;;;;;;;;;;;;15.69;73.23;100041.41;5052739;28;1187;-64
2021/07/27 02:19:05;;;;;;;;;;;;;;;15.63;73.64;100037.56;5052740;28;851;-64
2021/07/27 02:21:32;;;;;;;;;;;;;;;15.62;74.20;100040.78;5034875;28;1457;-64
2021/07/27 02:24:00;;;;;;;;;;;;;;;15.77;73.56;100046.84;5052670;28;904;-64
2021/07/27 02:26:27;;;;;;;;;;;;;;;15.78;73.29;100029.72;5052237;28;1463;-64
2021/07/27 02:28:54;;;;;;;;;;;;;;;15.64;73.27;100028.00;5052536;28;1918;-64
2021/07/27 02:31:42;;;;;;;;;;;;;;;15.44;73.84;100022.44;5052462;28;905;-64
2021/07/27 02:34:09;;;;;;;;;;;;;;;15.29;74.07;100035.88;5034764;28;1347;-64
2021/07/27 02:36:36;;;;;;;;;;;;;;;15.30;74.32;100036.69;5052368;28;818;-64
2021/07/27 02:39:06;;;;;;;;;;;;;;;15.38;74.26;100028.97;5052426;28;826;-64
2021/07/27 02:41:33;;;;;;;;;;;;;;;15.43;74.49;100040.41;5052495;28;803;-64
2021/07/27 02:44:00;;;;;;;;;;;;;;;15.41;74.39;100042.81;5052233;28;858;-64
2021/07/27 02:46:27;;;;;;;;;;;;;;;15.38;74.51;100048.47;5052302;28;826;-64
2021/07/27 02:48:54;;;;;;;;;;;;;;;15.38;75.09;100049.25;5052235;28;1885;-64
2021/07/27 02:51:21;;;;;;;;;;;;;;;15.46;75.12;100050.66;5052585;28;863;-64
2021/07/27 02:53:47;;;;;;;;;;;;;;;15.56;74.85;100053.66;5052414;28;798;-64
2021/07/27 02:56:14;;;;;;;;;;;;;;;15.68;74.40;100062.16;5052342;28;870;-64
2021/07/27 02:58:41;;;;;;;;;;;;;;;15.79;74.22;100056.38;5052554;28;910;-66
2021/07/27 03:01:08;;;;;;;;;;;;;;;15.90;73.22;100054.13;5052298;28;823;-65
2021/07/27 03:03:35;;;;;;;;;;;;;;;15.99;72.66;100047.16;5052132;28;858;-65
2021/07/27 03:06:02;;;;;;;;;;;;;;;16.07;72.42;100054.16;5034288;28;1291;-64
2021/07/27 03:08:47;;;;;;;;;;;;;;;16.13;72.06;100052.41;5052069;28;1949;-64
2021/07/27 03:11:15;;;;;;;;;;;;;;;16.18;71.89;100045.53;5051857;28;901;-64
2021/07/27 03:13:42;;;;;;;;;;;;;;;16.20;71.87;100040.31;5051764;28;881;-64
2021/07/27 03:16:18;;;;;;;;;;;;;;;16.23;71.63;100040.19;5051729;28;870;-64
2021/07/27 03:18:47;;;;;;;;;;;;;;;16.28;71.27;100039.69;5050995;28;851;-64
2021/07/27 03:21:14;;;;;;;;;;;;;;;16.37;71.10;100050.25;5051827;28;815;-64
2021/07/27 03:23:41;;;;;;;;;;;;;;;16.47;70.76;100046.41;5051786;28;918;-65
2021/07/27 03:26:07;;;;;;;;;;;;;;;16.56;70.27;100048.56;5051375;28;1412;-64
2021/07/27 03:28:34;;;;;;;;;;;;;;;16.66;69.85;100049.50;5033617;28;1958;-64
2021/07/27 03:31:00;;;;;;;;;;;;;;;16.70;69.84;100050.97;5051688;28;893;-64
2021/07/27 03:33:27;;;;;;;;;;;;;;;16.76;69.77;100048.44;5051671;28;847;-64
2021/07/27 03:35:54;;;;;;;;;;;;;;;16.81;69.48;100038.78;5051707;28;814;-64
2021/07/27 03:38:21;;;;;;;;;;;;;;;16.89;69.24;100043.72;5051552;28;913;-64
2021/07/27 03:40:47;;;;;;;;;;;;;;;17.05;69.05;100047.72;5051759;28;881;-64
2021/07/27 03:43:14;;;;;;;;;;;;;;;17.19;68.49;100052.13;5051342;28;799;-64
2021/07/27 03:45:41;;;;;;;;;;;;;;;17.39;67.95;100041.56;5051445;28;893;-64
2021/07/27 03:48:08;;;;;;;;;;;;;;;17.65;67.27;100045.19;5051361;28;1917;-64
2021/07/27 03:50:35;;;;;;;;;;;;;;;17.97;66.09;100043.44;5051369;28;854;-64
2021/07/27 03:53:02;;;;;;;;;;;;;;;18.16;65.24;100036.81;5051479;28;909;-64
2021/07/27 03:55:28;;;;;;;;;;;;;;;18.17;64.91;100037.59;5051362;28;905;-64
2021/07/27 03:57:56;;;;;;;;;;;;;;;18.12;65.05;100046.56;5033376;28;1273;-64
2021/07/27 04:00:23;;;;;;;;;;;;;;;18.15;65.10;100057.63;5051264;28;897;-64
2021/07/27 04:02:50;;;;;;;;;;;;;;;18.22;64.81;100062.22;5051250;28;868;-64
2021/07/27 04:05:17;;;;;;;;;;;;;;;18.34;64.35;100067.00;5051271;28;877;-65
2021/07/27 04:07:43;;;;;;;;;;;;;;;18.47;63.72;100064.19;5051157;28;1890;-64
2021/07/27 04:10:10;;;;;;;;;;;;;;;18.56;63.22;100060.69;5051204;28;807;-64
2021/07/27 04:12:36;;;;;;;;;;;;;;;18.64;62.89;100064.81;5033269;28;834;-64
2021/07/27 04:15:03;;;;;;;;;;;;;;;18.75;62.77;100065.25;5051064;28;887;-64
2021/07/27 04:17:30;;;;;;;;;;;;;;;18.90;62.41;100064.78;5051178;28;865;-64
2021/07/27 04:19:57;;;;;;;;;;;;;;;19.05;61.82;100070.66;5051131;28;939;-64
2021/07/27 04:22:24;;;;;;;;;;;;;;;19.16;61.46;100069.06;5051190;28;889;-64
2021/07/27 04:24:51;;;;;;;;;;;;;;;19.35;60.82;100069.97;5051222;28;934;-64
2021/07/27 04:27:21;;;;;;;;;;;;;;;19.50;60.51;100059.00;5050911;28;1906;-64
2021/07/27 04:29:47;;;;;;;;;;;;;;;19.52;60.15;100056.53;5052946;28;865;-64
2021/07/27 04:32:14;;;;;;;;;;;;;;;19.50;60.33;100061.00;5054882;28;822;-64
2021/07/27 04:34:41;;;;;;;;;;;;;;;19.56;60.05;100062.00;5054802;28;885;-64
2021/07/27 04:37:08;;;;;;;;;;;;;;;19.64;59.92;100057.69;5054779;28;894;-64
2021/07/27 04:39:35;;;;;;;;;;;;;;;19.75;59.82;100060.09;5054618;28;841;-64
2021/07/27 04:42:01;;;;;;;;;;;;;;;19.87;59.00;100064.84;5054565;28;846;-64
2021/07/27 04:44:28;;;;;;;;;;;;;;;19.98;58.74;100070.03;5054499;28;838;-64
2021/07/27 04:46:54;;;;;;;;;;;;;;;20.08;58.98;100070.81;5054556;28;1943;-64
2021/07/27 04:49:20;;;;;;;;;;;;;;;20.17;58.93;100063.25;5054570;28;811;-64
2021/07/27 04:51:47;;;;;;;;;;;;;;;20.36;58.99;100057.69;5054580;28;846;-64
2021/07/27 04:54:16;;;;;;;;;;;;;;;20.62;58.44;100057.47;5054504;28;862;-64
2021/07/27 04:56:43;;;;;;;;;;;;;;;20.88;57.93;100052.31;5054303;28;874;-64
2021/07/27 04:59:10;;;;;;;;;;;;;;;21.24;57.90;100053.56;5054288;28;881;-64
2021/07/27 05:01:39;;;;;;;;;;;;;;;21.63;57.09;100059.44;5054306;28;791;-64
2021/07/27 05:04:09;;;;;;;;;;;;;;;21.89;56.69;100062.63;5054312;28;878;-64
2021/07/27 05:06:37;;;;;;;;;;;;;;;22.14;56.22;100067.84;5054097;28;883;-64
2021/07/27 05:14:14;;;;;;;;;;;;;;;22.79;54.06;100078.78;5710884;22;1661;-64
2021/07/27 05:16:40;;;;;;;;;;;;;;;22.90;53.28;100076.19;5074101;28;821;-64
2021/07/27 05:19:07;;;;;;;;;;;;;;;23.05;52.00;100064.22;5074075;28;813;-64
2021/07/27 05:21:35;;;;;;;;;;;;;;;23.36;50.96;100064.53;5073940;28;813;-64
2021/07/27 05:24:02;;;;;;;;;;;;;;;23.83;49.47;100076.13;5073989;28;801;-64
2021/07/27 05:26:28;;;;;;;;;;;;;;;24.36;48.49;100068.72;5072559;28;1224;-64
2021/07/27 05:28:56;;;;;;;;;;;;;;;24.84;46.94;100071.97;5073922;28;1909;-64
2021/07/27 05:31:25;;;;;;;;;;;;;;;25.43;46.70;100072.88;5073834;28;888;-64
2021/07/27 05:33:52;;;;;;;;;;;;;;;26.09;46.08;100068.31;5074061;28;884;-64
2021/07/27 05:36:19;;;;;;;;;;;;;;;26.63;45.23;100071.25;5073920;28;847;-64
2021/07/27 05:38:46;;;;;;;;;;;;;;;26.98;45.24;100072.91;5073848;28;838;-64
2021/07/27 05:41:12;;;;;;;;;;;;;;;27.28;45.22;100072.50;5073252;28;825;-64
2021/07/27 05:43:39;;;;;;;;;;;;;;;28.15;43.32;100073.59;5073801;28;877;-64
2021/07/27 05:46:06;;;;;;;;;;;;;;;29.02;41.65;100070.72;5074195;28;825;-64
2021/07/27 05:48:33;;;;;;;;;;;;;;;29.71;40.29;100072.69;5073635;28;1945;-64
2021/07/27 05:50:59;;;;;;;;;;;;;;;30.38;38.78;100070.53;5074055;28;810;-64
2021/07/27 05:53:26;;;;;;;;;;;;;;;31.00;37.57;100075.50;5073308;28;806;-64
2021/07/27 05:55:53;;;;;;;;;;;;;;;31.61;36.47;100090.22;5073378;28;865;-64
2021/07/27 05:58:19;;;;;;;;;;;;;;;32.19;35.73;100083.78;5073255;28;837;-64
2021/07/27 06:00:45;;;;;;;;;;;;;;;32.64;35.38;100080.09;5073184;28;837;-64
2021/07/27 06:03:12;;;;;;;;;;;;;;;33.11;33.91;100076.53;5073137;28;853;-64
2021/07/27 06:05:39;;;;;;;;;;;;;;;33.35;33.76;100068.94;5073093;28;822;-64
2021/07/27 06:08:06;;;;;;;;;;;;;;;33.72;33.24;100072.78;5072978;28;1906;-64
2021/07/27 06:10:32;;;;;;;;;;;;;;;34.01;32.69;100067.84;5072948;28;798;-64
2021/07/27 06:12:59;;;;;;;;;;;;;;;34.12;32.63;100081.19;5072874;28;878;-64
2021/07/27 06:15:25;;;;;;;;;;;;;;;34.22;31.49;100079.31;5072710;28;1221;-64
2021/07/27 06:17:52;;;;;;;;;;;;;;;34.26;31.91;100073.25;5072829;28;813;-64
2021/07/27 06:20:19;;;;;;;;;;;;;;;34.98;31.41;100061.03;5072761;28;969;-64
2021/07/27 06:22:46;;;;;;;;;;;;;;;35.52;30.07;100066.91;5072680;28;885;-64
2021/07/27 06:25:13;;;;;;;;;;;;;;;36.06;29.47;100069.84;5072745;28;838;-64
2021/07/27 06:27:39;;;;;;;;;;;;;;;36.30;28.75;100072.16;5072503;28;1977;-63
2021/07/27 06:30:09;;;;;;;;;;;;;;;36.63;28.43;100075.16;5072621;28;826;-63
2021/07/27 06:32:35;;;;;;;;;;;;;;;36.92;28.27;100074.88;5072543;28;889;-63
2021/07/27 06:35:01;;;;;;;;;;;;;;;37.13;27.91;100074.63;5072497;28;837;-63
2021/07/27 06:37:26;;;;;;;;;;;;;;;37.29;26.88;100066.63;5072426;28;861;-63
2021/07/27 06:39:53;;;;;;;;;;;;;;;37.13;27.67;100069.59;5072444;28;834;-63
2021/07/27 06:42:19;;;;;;;;;;;;;;;37.25;27.22;100072.03;5072266;28;867;-63
2021/07/27 06:44:45;;;;;;;;;;;;;;;37.35;27.07;100070.81;5072264;28;890;-63
2021/07/27 06:47:11;;;;;;;;;;;;;;;37.29;26.76;100073.16;5072191;28;1965;-63
2021/07/27 06:49:38;;;;;;;;;;;;;;;37.51;27.05;100080.16;5072207;28;842;-63
2021/07/27 06:52:04;;;;;;;;;;;;;;;37.80;26.86;100074.75;5072204;28;802;-63
2021/07/27 06:54:33;;;;;;;;;;;;;;;38.14;25.59;100066.78;5072199;28;809;-63
2021/07/27 06:57:00;;;;;;;;;;;;;;;38.14;25.77;100072.56;5070764;28;2173;-63
2021/07/27 06:59:26;;;;;;;;;;;;;;;38.47;24.83;100064.50;5072211;28;806;-62
2021/07/27 07:01:53;;;;;;;;;;;;;;;38.79;23.96;100077.25;5072067;28;875;-62
2021/07/27 07:04:20;;;;;;;;;;;;;;;39.07;23.91;100070.22;5072251;28;798;-63
2021/07/27 07:06:47;;;;;;;;;;;;;;;39.19;24.01;100082.72;5071985;28;872;-63
2021/07/27 07:09:14;;;;;;;;;;;;;;;39.06;23.82;100071.56;5071916;28;1935;-62
2021/07/27 07:11:41;;;;;;;;;;;;;;;39.17;23.30;100073.91;5071812;28;857;-62
2021/07/27 07:14:08;;;;;;;;;;;;;;;39.45;22.16;100066.00;5071958;28;1370;-62
2021/07/27 07:16:34;;;;;;;;;;;;;;;39.26;21.72;100066.63;5071892;28;801;-62
2021/07/27 07:19:01;;;;;;;;;;;;;;;39.23;21.39;100059.19;5071846;28;821;-62
2021/07/27 07:21:28;;;;;;;;;;;;;;;39.32;21.54;100061.34;5071732;28;899;-62
2021/07/27 07:23:53;;;;;;;;;;;;;;;39.78;20.76;100059.91;5071817;28;884;-62
2021/07/27 07:26:19;;;;;;;;;;;;;;;39.85;20.63;100070.59;5071907;28;810;-62
2021/07/27 07:28:46;;;;;;;;;;;;;;;39.76;20.36;100066.28;5071634;28;1898;-62
2021/07/27 07:31:16;;;;;;;;;;;;;;;39.95;20.63;100062.72;5071918;28;896;-62
2021/07/27 07:33:43;;;;;;;;;;;;;;;39.85;19.78;100067.72;5071659;28;931;-62
2021/07/27 07:36:11;;;;;;;;;;;;;;;39.86;19.89;100065.59;5071620;28;806;-62
2021/07/27 07:38:38;;;;;;;;;;;;;;;40.07;19.82;100060.00;5071516;28;894;-62
2021/07/27 07:41:09;;;;;;;;;;;;;;;40.09;20.32;100068.06;5071734;28;801;-62
2021/07/27 07:43:37;;;;;;;;;;;;;;;40.50;19.74;100074.09;5071524;28;864;-62
2021/07/27 07:46:04;;;;;;;;;;;;;;;40.59;20.08;100074.09;5071446;28;877;-62
2021/07/27 07:48:30;;;;;;;;;;;;;;;40.81;20.23;100071.38;5071442;28;1882;-62
2021/07/27 07:50:57;;;;;;;;;;;;;;;40.92;19.28;100070.75;5071460;28;821;-62
2021/07/27 07:53:23;;;;;;;;;;;;;;;40.84;18.34;100069.38;5071384;28;857;-62
2021/07/27 07:55:50;;;;;;;;;;;;;;;40.46;18.58;100073.78;5071416;28;817;-62
2021/07/27 07:58:16;;;;;;;;;;;;;;;40.42;18.22;100068.47;5071386;28;869;-62
2021/07/27 08:00:43;;;;;;;;;;;;;;;40.65;18.15;100070.13;5071357;28;802;-62
2021/07/27 08:03:11;;;;;;;;;;;;;;;40.37;17.94;100070.28;5071477;28;900;-62
2021/07/27 08:05:37;;;;;;;;;;;;;;;40.38;18.34;100068.16;5074791;28;837;-62
2021/07/27 08:08:04;;;;;;;;;;;;;;;40.46;18.58;100065.09;5075167;28;1881;-63
2021/07/27 08:10:33;;;;;;;;;;;;;;;40.35;17.70;100070.13;5075247;28;872;-63
2021/07/27 08:12:59;;;;;;;;;;;;;;;40.41;18.36;100070.59;5075315;28;1029;-62
2021/07/27 08:15:27;;;;;;;;;;;;;;;40.42;19.20;100075.00;5075113;28;1240;-63
2021/07/27 08:17:54;;;;;;;;;;;;;;;40.32;18.63;100071.34;5075124;28;846;-62
2021/07/27 08:20:22;;;;;;;;;;;;;;;39.61;18.48;100086.78;5075154;28;802;-62
2021/07/27 08:22:49;;;;;;;;;;;;;;;39.47;18.93;100074.84;5075091;28;805;-62
2021/07/27 08:25:17;;;;;;;;;;;;;;;39.97;18.07;100070.81;5074939;28;841;-62
2021/07/27 08:27:44;;;;;;;;;;;;;;;39.96;17.08;100080.84;5074896;28;1906;-61
2021/07/27 08:30:13;;;;;;;;;;;;;;;39.89;17.40;100073.81;5074918;28;901;-62
2021/07/27 08:32:48;;;;;;;;;;;;;;;39.84;18.42;100083.56;5074819;28;881;-62
2021/07/27 08:35:15;;;;;;;;;;;;;;;39.77;18.42;100084.41;5074856;28;924;-62
2021/07/27 08:37:42;;;;;;;;;;;;;;;39.97;18.13;100071.56;5073707;28;829;-62
2021/07/27 08:40:09;;;;;;;;;;;;;;;39.96;18.33;100072.16;5074464;28;889;-62
2021/07/27 08:42:37;;;;;;;;;;;;;;;39.95;18.63;100071.41;5074721;28;802;-62
2021/07/27 08:45:04;;;;;;;;;;;;;;;40.05;18.26;100064.88;5074603;28;798;-63
2021/07/27 08:47:34;;;;;;;;;;;;;;;39.99;18.63;100068.81;5074549;28;1953;-62
2021/07/27 08:50:01;;;;;;;;;;;;;;;39.84;18.81;100082.75;5074531;28;994;-61
2021/07/27 08:52:28;;;;;;;;;;;;;;;39.54;19.26;100076.88;5074814;28;814;-62
2021/07/27 08:54:55;;;;;;;;;;;;;;;39.72;19.08;100071.00;5074463;28;810;-61
2021/07/27 08:57:22;;;;;;;;;;;;;;;39.71;19.18;100064.47;5074345;28;949;-62
2021/07/27 08:59:48;;;;;;;;;;;;;;;39.53;18.82;100060.88;5074392;28;888;-62
2021/07/27 09:02:25;;;;;;;;;;;;;;;39.40;19.05;100062.03;5074342;28;892;-62
2021/07/27 09:05:02;;;;;;;;;;;;;;;39.18;19.21;100055.22;5074317;28;833;-61
2021/07/27 09:07:29;;;;;;;;;;;;;;;38.91;19.09;100055.16;5074205;28;1889;-62
2021/07/27 09:09:56;;;;;;;;;;;;;;;39.02;19.25;100053.88;5074182;28;893;-62
2021/07/27 09:12:23;;;;;;;;;;;;;;;38.72;19.18;100046.34;5074111;28;889;-62
2021/07/27 09:14:50;;;;;;;;;;;;;;;38.41;19.95;100043.81;5073937;28;1299;-62
2021/07/27 09:17:23;;;;;;;;;;;;;;;38.32;20.32;100047.38;5073188;28;868;-61
2021/07/27 09:19:50;;;;;;;;;;;;;;;38.31;20.25;100035.06;5072709;28;1301;-61
2021/07/27 09:22:17;;;;;;;;;;;;;;;38.27;20.68;100048.38;5073984;28;853;-61
2021/07/27 09:24:43;;;;;;;;;;;;;;;38.19;19.95;100034.03;5073960;28;841;-62
2021/07/27 09:27:10;;;;;;;;;;;;;;;37.96;19.99;100045.75;5074024;28;1971;-62
2021/07/27 09:29:45;;;;;;;;;;;;;;;37.96;19.53;100042.88;5073854;28;794;-62
2021/07/27 09:32:19;;;;;;;;;;;;;;;37.97;20.74;100030.00;5073899;28;1191;-62
2021/07/27 09:34:46;;;;;;;;;;;;;;;38.25;20.49;100037.44;5073808;28;856;-61
2021/07/27 09:37:13;;;;;;;;;;;;;;;38.13;19.92;100034.31;5073742;28;829;-61
2021/07/27 09:39:40;;;;;;;;;;;;;;;38.14;19.79;100032.94;5073565;28;856;-62
2021/07/27 09:42:08;;;;;;;;;;;;;;;38.05;20.77;100032.84;5073592;28;1050;-61
2021/07/27 09:44:36;;;;;;;;;;;;;;;38.01;21.73;100021.69;5073601;28;917;-61
2021/07/27 09:47:03;;;;;;;;;;;;;;;37.90;21.26;100027.97;5073746;28;1913;-62
2021/07/27 09:49:29;;;;;;;;;;;;;;;37.54;21.06;100021.31;5073499;28;994;-62
2021/07/27 09:51:56;;;;;;;;;;;;;;;37.15;20.96;100035.22;5073320;28;881;-61
2021/07/27 09:54:24;;;;;;;;;;;;;;;36.91;21.17;100035.88;5073416;28;849;-62
2021/07/27 09:56:54;;;;;;;;;;;;;;;36.68;21.34;100022.38;5073365;28;833;-62
2021/07/27 09:59:22;;;;;;;;;;;;;;;36.46;21.87;100026.06;5073289;28;886;-62
2021/07/27 10:02:07;;;;;;;;;;;;;;;36.17;21.35;100020.59;5073270;28;798;-62
2021/07/27 10:04:37;;;;;;;;;;;;;;;35.88;21.67;100017.91;5073198;28;865;-62
2021/07/27 10:07:07;;;;;;;;;;;;;;;35.87;22.25;100013.50;5073117;28;1951;-62
2021/07/27 10:09:35;;;;;;;;;;;;;;;35.66;22.94;100025.19;5072917;28;846;-63
2021/07/27 10:12:08;;;;;;;;;;;;;;;35.57;22.55;100022.84;5072990;28;880;-63
2021/07/27 10:14:41;;;;;;;;;;;;;;;35.54;22.64;100021.91;5073127;28;1190;-63
2021/07/27 10:17:09;;;;;;;;;;;;;;;35.71;22.86;100015.59;5072917;28;842;-62
2021/07/27 10:19:39;;;;;;;;;;;;;;;36.01;22.49;100022.69;5072773;28;925;-62
2021/07/27 10:22:07;;;;;;;;;;;;;;;35.87;21.60;100012.72;5071496;28;801;-63
2021/07/27 10:24:42;;;;;;;;;;;;;;;35.53;22.10;100014.63;5072801;28;814;-62
2021/07/27 10:27:22;;;;;;;;;;;;;;;35.58;22.51;100013.66;5071294;28;1921;-61
2021/07/27 10:29:48;;;;;;;;;;;;;;;36.04;22.44;100015.78;5072591;28;873;-63
2021/07/27 10:32:15;;;;;;;;;;;;;;;36.01;22.17;100010.41;5072612;28;857;-62
2021/07/27 10:34:43;;;;;;;;;;;;;;;36.08;22.92;100018.25;5072594;28;872;-62
2021/07/27 10:37:11;;;;;;;;;;;;;;;36.12;23.44;100019.38;5072519;28;853;-62
2021/07/27 10:39:59;;;;;;;;;;;;;;;36.16;22.11;100016.94;5072287;28;834;-63
2021/07/27 10:42:37;;;;;;;;;;;;;;;35.97;22.18;100010.78;5072529;28;874;-62
2021/07/27 10:45:16;;;;;;;;;;;;;;;36.06;22.44;100013.09;5072388;28;834;-62
2021/07/27 10:47:47;;;;;;;;;;;;;;;36.09;21.96;100009.06;5072188;28;1890;-63
2021/07/27 10:50:14;;;;;;;;;;;;;;;35.91;22.79;100013.88;5072236;28;913;-62
2021/07/27 10:52:42;;;;;;;;;;;;;;;35.73;22.73;100007.19;5072210;28;810;-63
2021/07/27 10:55:09;;;;;;;;;;;;;;;35.97;23.17;100013.66;5072900;28;746;-62
2021/07/27 10:57:37;;;;;;;;;;;;;;;36.50;22.41;100014.91;5072182;28;864;-63
2021/07/27 11:00:05;;;;;;;;;;;;;;;36.47;21.60;100004.59;5071018;28;1191;-62
2021/07/27 11:02:31;;;;;;;;;;;;;;;36.52;21.18;100009.34;5072453;28;861;-62
2021/07/27 11:04:58;;;;;;;;;;;;;;;36.66;21.42;100001.25;5072539;28;833;-62
2021/07/27 11:07:28;;;;;;;;;;;;;;;36.50;20.51;100007.03;5072425;28;1886;-62
2021/07/27 11:09:55;;;;;;;;;;;;;;;36.50;21.79;100003.41;5072062;28;834;-62
2021/07/27 11:12:32;;;;;;;;;;;;;;;36.56;21.43;100001.09;5071923;28;861;-62
2021/07/27 11:15:18;;;;;;;;;;;;;;;36.44;20.65;100003.63;5071802;28;1329;-63
2021/07/27 11:17:54;;;;;;;;;;;;;;;36.34;21.32;99997.72;5071815;28;877;-62
2021/07/27 11:20:23;;;;;;;;;;;;;;;36.56;22.10;100001.09;5072571;28;758;-62
2021/07/27 11:22:54;;;;;;;;;;;;;;;36.84;20.98;99999.25;5071901;28;822;-62
2021/07/27 11:25:22;;;;;;;;;;;;;;;36.85;20.42;99992.94;5071799;28;825;-62
2021/07/27 11:27:48;;;;;;;;;;;;;;;36.94;20.43;99985.78;5071708;28;1969;-62
2021/07/27 11:30:15;;;;;;;;;;;;;;;37.01;21.76;99987.84;5071733;28;932;-62
2021/07/27 11:32:43;;;;;;;;;;;;;;;37.04;20.82;99983.00;5071927;28;794;-63
2021/07/27 11:35:11;;;;;;;;;;;;;;;37.24;21.10;99984.84;5071627;28;826;-62
2021/07/27 11:37:38;;;;;;;;;;;;;;;37.48;19.66;99982.53;5071531;28;849;-63
2021/07/27 11:40:05;;;;;;;;;;;;;;;37.25;20.84;99977.69;5070887;28;860;-62
2021/07/27 11:42:32;;;;;;;;;;;;;;;37.39;21.58;99978.19;5071543;28;867;-62
2021/07/27 11:45:01;;;;;;;;;;;;;;;37.15;20.83;99974.72;5071499;28;850;-63
2021/07/27 11:47:44;;;;;;;;;;;;;;;37.08;21.26;99977.59;5071324;28;1895;-63
2021/07/27 11:50:13;;;;;;;;;;;;;;;37.30;20.02;99970.97;5071381;28;861;-63
2021/07/27 11:52:42;;;;;;;;;;;;;;;37.67;19.80;99970.50;5071636;28;868;-62
2021/07/27 11:55:09;;;;;;;;;;;;;;;37.35;20.01;99972.06;5071499;28;838;-63
2021/07/27 11:57:36;;;;;;;;;;;;;;;37.05;21.09;99970.91;5071408;28;893;-63
2021/07/27 12:00:09;;;;;;;;;;;;;;;37.02;21.00;99968.44;5071371;28;879;-63
2021/07/27 12:02:36;;;;;;;;;;;;;;;37.29;20.65;99960.78;5071354;28;818;-63
2021/07/27 12:05:03;;;;;;;;;;;;;;;37.45;20.61;99969.28;5071472;28;837;-62
2021/07/27 12:07:31;;;;;;;;;;;;;;;37.66;20.67;99955.31;5071086;28;1886;-63
2021/07/27 12:09:57;;;;;;;;;;;;;;;37.89;20.80;99960.06;5071204;28;843;-61
2021/07/27 12:12:24;;;;;;;;;;;;;;;37.91;20.98;99952.34;5071279;28;818;-61
2021/07/27 12:14:51;;;;;;;;;;;;;;;38.04;20.03;99954.16;5071246;28;1373;-61
2021/07/27 12:17:17;;;;;;;;;;;;;;;38.25;19.64;99950.09;5071214;28;829;-61
2021/07/27 12:19:44;;;;;;;;;;;;;;;38.05;19.98;99949.19;5071220;28;806;-62
2021/07/27 12:22:12;;;;;;;;;;;;;;;38.06;20.53;99953.59;5071009;28;1105;-60
2021/07/27 12:24:39;;;;;;;;;;;;;;;37.84;20.65;99944.56;5071184;28;880;-61
2021/07/27 12:27:06;;;;;;;;;;;;;;;37.47;21.46;99950.06;5070962;28;1913;-60
2021/07/27 12:29:32;;;;;;;;;;;;;;;37.40;21.07;99942.25;5071102;28;873;-60
2021/07/27 12:32:00;;;;;;;;;;;;;;;37.72;21.25;99940.63;5071004;28;889;-62
2021/07/27 12:34:27;;;;;;;;;;;;;;;38.03;20.88;99934.56;5071148;28;814;-62
2021/07/27 12:36:57;;;;;;;;;;;;;;;38.19;20.50;99938.81;5070875;28;834;-62
2021/07/27 12:39:23;;;;;;;;;;;;;;;38.56;20.81;99933.94;5070972;28;797;-60
2021/07/27 12:41:50;;;;;;;;;;;;;;;38.53;20.66;99934.38;5070985;28;814;-61
2021/07/27 12:44:17;;;;;;;;;;;;;;;38.11;20.53;99932.34;5070980;28;802;-61
2021/07/27 12:46:43;;;;;;;;;;;;;;;37.96;20.59;99927.50;5070927;28;876;-61
2021/07/27 12:49:14;;;;;;;;;;;;;;;37.99;21.07;99921.31;5070911;28;1890;-61
2021/07/27 12:51:40;;;;;;;;;;;;;;;38.08;20.65;99919.13;5074085;28;1038;-61
2021/07/27 12:54:08;;;;;;;;;;;;;;;38.09;21.32;99929.31;5074709;28;817;-61
2021/07/27 12:56:35;;;;;;;;;;;;;;;38.03;20.98;99931.69;5074468;28;841;-61
2021/07/27 12:59:02;;;;;;;;;;;;;;;38.41;20.98;99925.47;5074403;28;868;-63
2021/07/27 13:01:28;;;;;;;;;;;;;;;38.48;20.05;99924.59;5074280;28;857;-61
2021/07/27 13:03:55;;;;;;;;;;;;;;;38.50;20.19;99926.91;5074320;28;865;-61
2021/07/27 13:06:22;;;;;;;;;;;;;;;38.23;20.46;99935.50;5074387;28;845;-61
2021/07/27 13:08:49;;;;;;;;;;;;;;;38.33;21.12;99924.81;5074206;28;1890;-61
2021/07/27 13:11:15;;;;;;;;;;;;;;;38.68;20.76;99933.41;5074151;28;822;-61
2021/07/27 13:13:42;;;;;;;;;;;;;;;39.03;20.39;99928.31;5074281;28;976;-61
2021/07/27 13:16:10;;;;;;;;;;;;;;;38.94;20.43;99926.09;5073959;28;1424;-61
2021/07/27 13:18:37;;;;;;;;;;;;;;;39.04;20.58;99921.13;5074013;28;873;-61
2021/07/27 13:21:04;;;;;;;;;;;;;;;38.93;20.14;99918.78;5073983;28;790;-61
2021/07/27 13:23:31;;;;;;;;;;;;;;;38.57;20.25;99917.38;5073938;28;881;-61